Time;durP1;ratioP1;P1;durP2;ratioP2;P2;SDS_P1;SDS_P2;PMS_P1;PMS_P2;Temp;Humidity;BMP_temperature;BMP_pressure;BME280_temperature;BME280_humidity;BME280_pressure;Samples;Min_cycle;Max_cycle;Signal;HPM_P1;HPM_P2
2021/04/19 00:00:39;;;;;;;0.30;0.30;;;;;;;6.11;77.39;93304.31;4991642;28;20458;-40
2021/04/19 00:03:05;;;;;;;0.43;0.43;;;;;;;6.13;76.89;93296.28;4991404;28;20076;-40
2021/04/19 00:05:30;;;;;;;0.43;0.43;;;;;;;6.15;76.94;93291.03;4991655;28;20076;-40
2021/04/19 00:07:56;;;;;;;0.50;0.50;;;;;;;6.13;76.86;93298.31;4991528;28;20022;-40
2021/04/19 00:10:22;;;;;;;1.15;1.15;;;;;;;6.03;77.17;93290.47;4991275;28;20112;-40
2021/04/19 00:12:48;;;;;;;0.68;0.40;;;;;;;6.13;76.95;93291.56;4991158;28;20072;-40
2021/04/19 00:15:16;;;;;;;0.20;0.20;;;;;;;6.20;76.84;93292.19;4991464;28;20026;-40
2021/04/19 00:17:41;;;;;;;0.50;0.50;;;;;;;6.13;77.00;93283.31;4991339;28;20026;-40
2021/04/19 00:20:08;;;;;;;0.30;0.30;;;;;;;6.16;76.95;93291.78;4990324;28;20034;-40
2021/04/19 00:22:34;;;;;;;1.48;1.45;;;;;;;6.10;77.31;93284.41;4991472;28;20046;-41
2021/04/19 00:25:00;;;;;;;2.00;1.90;;;;;;;6.12;77.31;93281.13;4990857;28;20583;-42
2021/04/19 00:27:25;;;;;;;0.40;0.38;;;;;;;6.10;77.52;93281.66;4985331;28;20034;-42
2021/04/19 00:29:51;;;;;;;0.75;0.75;;;;;;;6.13;77.52;93285.31;4980509;28;20034;-42
2021/04/19 00:32:16;;;;;;;0.35;0.35;;;;;;;6.22;77.21;93281.44;4972498;28;20051;-41
2021/04/19 00:34:41;;;;;;;6.03;2.17;;;;;;;6.13;76.96;93269.63;4971432;28;20492;-40
2021/04/19 00:37:07;;;;;;;3.65;1.33;;;;;;;6.15;77.42;93265.63;4979262;28;20022;-39
2021/04/19 00:39:32;;;;;;;1.02;1.02;;;;;;;6.13;77.29;93271.63;4974278;28;20105;-39
2021/04/19 00:41:58;;;;;;;1.45;0.75;;;;;;;6.13;77.36;93271.63;4971821;28;20094;-39
2021/04/19 00:44:24;;;;;;;0.93;0.93;;;;;;;6.20;77.00;93267.53;4954087;28;20030;-40
2021/04/19 00:46:50;;;;;;;0.50;0.50;;;;;;;6.10;77.05;93262.47;4971130;28;20023;-40
2021/04/19 00:49:16;;;;;;;0.50;0.50;;;;;;;6.13;76.82;93269.63;4970741;28;20038;-41
2021/04/19 00:51:41;;;;;;;1.60;1.50;;;;;;;6.08;76.88;93254.03;4971189;28;20105;-41
2021/04/19 00:54:08;;;;;;;2.78;0.75;;;;;;;6.03;76.14;93241.16;4971515;28;20109;-43
2021/04/19 00:56:34;;;;;;;0.65;0.65;;;;;;;6.08;76.36;93248.56;4954321;28;20457;-42
2021/04/19 00:58:59;;;;;;;0.63;0.50;;;;;;;6.07;76.65;93254.53;4953752;28;20025;-42
2021/04/19 01:01:26;;;;;;;0.70;0.70;;;;;;;6.16;76.40;93248.66;4971374;28;20487;-40
2021/04/19 01:03:52;;;;;;;0.20;0.20;;;;;;;6.15;76.42;93246.44;4971572;28;20026;-42
2021/04/19 01:06:18;;;;;;;0.35;0.35;;;;;;;6.15;76.31;93246.44;4990414;28;20650;-41
2021/04/19 01:08:43;;;;;;;0.50;0.50;;;;;;;6.18;75.71;93250.88;4990816;28;20033;-42
2021/04/19 01:11:08;;;;;;;0.82;0.82;;;;;;;6.02;75.85;93249.91;4990083;28;20495;-42
2021/04/19 01:13:34;;;;;;;1.05;1.05;;;;;;;6.02;76.06;93247.88;4990678;28;20157;-41
2021/04/19 01:15:59;;;;;;;5.95;1.13;;;;;;;6.01;76.37;93251.16;4990847;28;20020;-42
2021/04/19 01:18:25;;;;;;;0.30;0.30;;;;;;;5.98;76.24;93246.72;4990703;28;20057;-41
2021/04/19 01:20:51;;;;;;;0.65;0.65;;;;;;;5.85;76.49;93258.38;4990465;28;20022;-42
2021/04/19 01:23:17;;;;;;;0.95;0.95;;;;;;;5.90;75.53;93245.88;4990369;28;20084;-42
2021/04/19 01:25:44;;;;;;;0.65;0.65;;;;;;;6.01;75.70;93251.91;4990030;28;20145;-44
2021/04/19 01:28:09;;;;;;;0.82;0.82;;;;;;;6.00;74.99;93255.91;4990028;28;20026;-42
2021/04/19 01:30:40;;;;;;;2.28;0.40;;;;;;;5.96;75.98;93247.25;4990133;28;20033;-42
2021/04/19 01:33:06;;;;;;;0.40;0.40;;;;;;;6.03;75.58;93257.59;4989864;28;20128;-42
2021/04/19 01:35:35;;;;;;;2.42;0.43;;;;;;;6.10;75.49;93262.47;4989993;28;20034;-43
2021/04/19 01:38:02;;;;;;;0.30;0.30;;;;;;;6.02;75.85;93255.38;4972928;28;20030;-43
2021/04/19 01:40:28;;;;;;;1.85;1.02;;;;;;;6.01;76.51;93249.16;4989959;28;20026;-44
2021/04/19 01:42:54;;;;;;;1.17;1.10;;;;;;;5.98;76.69;93249.44;4990085;28;20022;-43
2021/04/19 01:45:19;;;;;;;0.65;0.65;;;;;;;5.92;76.72;93246.81;4990073;28;20026;-44
2021/04/19 01:47:45;;;;;;;0.30;0.30;;;;;;;5.94;75.96;93238.81;4990213;28;20177;-42
2021/04/19 01:50:20;;;;;;;0.88;0.88;;;;;;;5.62;76.85;93249.03;4989760;28;20042;-42
2021/04/19 01:52:46;;;;;;;0.63;0.63;;;;;;;5.62;77.05;93243.53;4989500;28;20022;-42
2021/04/19 01:55:18;;;;;;;0.65;0.65;;;;;;;5.62;77.22;93245.53;4989994;28;20049;-44
2021/04/19 01:57:59;;;;;;;0.50;0.50;;;;;;;5.70;77.33;93235.44;4990078;28;20026;-44
2021/04/19 02:00:26;;;;;;;0.52;0.52;;;;;;;5.75;77.49;93231.88;4989879;28;20027;-43
2021/04/19 02:03:00;;;;;;;0.85;0.85;;;;;;;5.84;77.68;93228.78;4989867;28;20026;-43
2021/04/19 02:06:00;;;;;;;0.57;0.57;;;;;;;5.84;77.10;93229.53;4988838;28;20109;-43
2021/04/19 02:08:58;;;;;;;0.22;0.22;;;;;;;5.81;77.64;93216.09;4988968;28;20019;-44
2021/04/19 02:11:38;;;;;;;3.10;0.90;;;;;;;5.67;77.47;93209.13;4968583;28;20050;-45
2021/04/19 02:14:14;;;;;;;1.17;1.17;;;;;;;5.75;78.05;93213.47;4990088;28;20029;-42
2021/04/19 02:16:46;;;;;;;0.20;0.20;;;;;;;5.79;78.11;93202.94;4990212;28;20084;-42
2021/04/19 02:19:38;;;;;;;0.30;0.30;;;;;;;5.84;77.74;93207.59;4990174;28;20069;-41
2021/04/19 02:22:23;;;;;;;0.65;0.65;;;;;;;5.82;77.42;93209.38;4990112;28;20396;-43
2021/04/19 02:24:50;;;;;;;0.93;0.93;;;;;;;5.92;76.94;93213.94;4989742;28;20038;-43
2021/04/19 02:27:28;;;;;;;1.90;1.80;;;;;;;5.74;77.98;93203.03;4972636;28;20419;-44
2021/04/19 02:29:54;;;;;;;0.90;0.90;;;;;;;5.89;77.50;93220.47;4988985;28;20161;-44
2021/04/19 02:32:21;;;;;;;2.13;1.27;;;;;;;5.91;77.46;93223.41;4972403;28;20484;-43
2021/04/19 02:34:48;;;;;;;0.28;0.28;;;;;;;5.91;77.85;93228.88;4988739;28;20034;-43
2021/04/19 02:37:14;;;;;;;1.25;1.15;;;;;;;5.92;77.74;93232.38;4991906;28;20052;-44
2021/04/19 02:39:42;;;;;;;0.30;0.30;;;;;;;5.84;77.86;93234.25;4975702;28;20479;-43
2021/04/19 02:42:08;;;;;;;0.28;0.28;;;;;;;5.84;77.35;93232.28;4993028;28;20041;-42
2021/04/19 02:44:35;;;;;;;0.20;0.20;;;;;;;5.91;76.95;93231.63;4993373;28;20117;-43
2021/04/19 02:47:01;;;;;;;0.40;0.40;;;;;;;5.94;76.61;93244.28;4975877;28;20407;-43
2021/04/19 02:49:31;;;;;;;1.17;1.08;;;;;;;5.92;76.07;93230.38;4975875;28;20085;-43
2021/04/19 02:51:58;;;;;;;0.20;0.20;;;;;;;6.08;75.08;93223.88;4975915;28;20109;-43
2021/04/19 02:54:24;;;;;;;0.82;0.82;;;;;;;6.05;75.27;93221.44;4975619;28;20431;-43
2021/04/19 02:56:51;;;;;;;0.63;0.63;;;;;;;5.99;75.20;93216.06;4975660;28;20034;-43
2021/04/19 02:59:18;;;;;;;1.40;0.60;;;;;;;6.01;75.19;93221.00;4992627;28;20031;-40
2021/04/19 03:01:46;;;;;;;0.45;0.45;;;;;;;5.96;75.73;93208.88;4992756;28;20499;-40
2021/04/19 03:04:17;;;;;;;0.77;0.77;;;;;;;5.69;76.04;93201.13;4991369;28;20030;-41
2021/04/19 03:06:47;;;;;;;0.30;0.30;;;;;;;5.82;75.58;93193.66;4992966;28;20100;-42
2021/04/19 03:09:12;;;;;;;;;;;;;;;5.78;75.95;93190.47;4975654;28;20072;-42
2021/04/19 03:11:42;;;;;;;0.20;0.20;;;;;;;5.71;76.00;93180.16;4975119;28;19941;-41
2021/04/19 03:14:09;;;;;;;0.57;0.57;;;;;;;5.67;76.31;93181.72;4975125;28;20030;-42
2021/04/19 03:16:35;;;;;;;0.20;0.20;;;;;;;5.70;76.19;93172.44;4975404;28;20034;-43
2021/04/19 03:19:03;;;;;;;0.20;0.20;;;;;;;5.76;75.85;93167.63;4991427;28;20026;-42
2021/04/19 03:21:29;;;;;;;0.82;0.82;;;;;;;5.71;76.29;93171.94;4992430;28;20153;-41
2021/04/19 03:24:01;;;;;;;1.58;1.50;;;;;;;5.85;76.30;93165.25;4974045;28;20560;-44
2021/04/19 03:26:28;;;;;;;1.00;0.30;;;;;;;5.87;76.57;93162.72;4992383;28;20665;-44
2021/04/19 03:28:54;;;;;;;0.68;0.68;;;;;;;5.82;76.80;93155.31;4992093;28;20556;-42
2021/04/19 03:31:25;;;;;;;0.50;0.50;;;;;;;5.91;76.59;93152.16;4991973;28;20105;-42
2021/04/19 03:33:53;;;;;;;0.20;0.20;;;;;;;5.84;76.63;93150.06;4991950;28;20481;-43
2021/04/19 03:36:19;;;;;;;0.20;0.20;;;;;;;5.85;76.57;93156.28;4974970;28;20436;-44
2021/04/19 03:38:46;;;;;;;0.45;0.45;;;;;;;5.87;76.43;93161.97;4974735;28;20052;-44
2021/04/19 03:41:13;;;;;;;0.80;0.80;;;;;;;5.82;76.54;93158.06;4974647;28;20046;-43
2021/04/19 03:43:39;;;;;;;0.50;0.50;;;;;;;5.92;76.24;93172.09;4974800;28;20034;-43
2021/04/19 03:46:05;;;;;;;0.90;0.90;;;;;;;5.96;76.13;93170.53;4974827;28;20022;-43
2021/04/19 03:48:32;;;;;;;0.77;0.77;;;;;;;6.01;76.00;93180.66;4973771;28;20549;-41
2021/04/19 03:51:03;;;;;;;1.52;0.82;;;;;;;5.89;77.01;93171.13;4991715;28;20113;-44
2021/04/19 03:53:29;;;;;;;0.40;0.40;;;;;;;6.05;76.33;93174.84;4974605;28;20026;-42
2021/04/19 03:55:56;;;;;;;0.85;0.85;;;;;;;6.07;76.39;93173.06;4958272;28;20439;-43
2021/04/19 03:58:23;;;;;;;0.30;0.30;;;;;;;6.10;75.89;93179.50;4990739;28;20088;-42
2021/04/19 04:00:49;;;;;;;0.30;0.30;;;;;;;6.06;75.56;93173.59;4974177;28;20109;-42
2021/04/19 04:03:16;;;;;;;0.80;0.80;;;;;;;5.98;75.80;93181.69;4991789;28;20081;-43
2021/04/19 04:05:44;;;;;;;0.82;0.82;;;;;;;6.10;75.22;93172.03;4974433;28;20035;-42
2021/04/19 04:08:10;;;;;;;0.73;0.73;;;;;;;6.11;75.14;93170.00;4990581;28;20431;-42
2021/04/19 04:10:35;;;;;;;2.35;2.15;;;;;;;5.66;76.02;93166.53;4991797;28;20030;-42
2021/04/19 04:13:01;;;;;;;0.73;0.73;;;;;;;5.42;77.74;93183.88;4990521;28;20601;-42
2021/04/19 04:15:26;;;;;;;1.48;1.38;;;;;;;5.39;78.55;93174.69;4973951;28;20438;-45
2021/04/19 04:17:52;;;;;;;1.23;0.73;;;;;;;5.53;78.59;93177.47;4991608;28;20030;-43
2021/04/19 04:20:17;;;;;;;3.45;2.40;;;;;;;5.66;77.92;93169.28;4991459;28;20026;-43
2021/04/19 04:22:43;;;;;;;0.63;0.63;;;;;;;5.73;78.14;93174.16;4991634;28;20037;-44
2021/04/19 04:25:09;;;;;;;3.65;2.33;;;;;;;5.80;78.19;93182.50;4973823;28;20496;-44
2021/04/19 04:27:35;;;;;;;1.55;1.45;;;;;;;5.77;78.02;93167.09;4991701;28;20026;-44
2021/04/19 04:30:00;;;;;;;1.20;1.13;;;;;;;5.85;77.95;93187.16;4990416;28;20104;-42
2021/04/19 04:32:26;;;;;;;1.33;1.33;;;;;;;6.03;77.68;93174.63;4991256;28;20581;-44
2021/04/19 04:34:51;;;;;;;1.20;1.10;;;;;;;6.14;77.15;93174.44;4991139;28;20033;-44
2021/04/19 04:37:18;;;;;;;0.95;0.90;;;;;;;6.21;76.85;93167.59;4991221;28;20049;-44
2021/04/19 04:39:43;;;;;;;0.95;0.95;;;;;;;6.11;76.33;93164.53;4991324;28;20030;-43
2021/04/19 04:42:13;;;;;;;0.55;0.55;;;;;;;6.09;76.39;93170.53;4991139;28;20392;-44
2021/04/19 04:44:41;;;;;;;1.05;0.98;;;;;;;6.02;75.98;93159.47;4990749;28;20633;-44
2021/04/19 04:47:32;;;;;;;0.43;0.43;;;;;;;6.11;76.46;93176.22;4989728;28;20042;-39
2021/04/19 04:50:07;;;;;;;0.85;0.85;;;;;;;6.24;76.24;93166.53;4973298;28;20587;-40
2021/04/19 04:53:02;;;;;;;0.30;0.30;;;;;;;6.20;76.57;93164.09;4989953;28;20400;-43
2021/04/19 04:55:29;;;;;;;1.17;1.08;;;;;;;6.28;76.66;93167.69;4973000;28;20480;-44
2021/04/19 04:57:55;;;;;;;0.52;0.52;;;;;;;6.35;76.32;93166.31;4990587;28;20496;-44
2021/04/19 05:00:21;;;;;;;0.30;0.30;;;;;;;6.31;76.36;93158.41;4977656;28;20027;-42
2021/04/19 05:02:48;;;;;;;2.85;0.73;;;;;;;6.34;76.21;93153.88;4957105;28;20583;-44
2021/04/19 05:05:16;;;;;;;1.15;1.15;;;;;;;6.42;76.34;93162.94;4987757;28;20030;-44
2021/04/19 05:07:42;;;;;;;0.65;0.65;;;;;;;6.29;76.25;93163.69;4988472;28;20069;-44
2021/04/19 05:10:08;;;;;;;3.10;1.02;;;;;;;6.38;76.88;93160.53;4969724;28;20466;-43
2021/04/19 05:12:34;;;;;;;0.73;0.73;;;;;;;6.41;76.48;93153.25;4988101;28;20495;-45
2021/04/19 05:15:02;;;;;;;3.70;1.50;;;;;;;6.43;76.54;93158.94;4988427;28;20041;-44
2021/04/19 05:17:27;;;;;;;0.70;0.70;;;;;;;6.50;75.35;93150.06;4985402;28;20038;-45
2021/04/19 05:19:53;;;;;;;1.27;1.13;;;;;;;6.47;75.66;93157.34;4981612;28;20030;-44
2021/04/19 05:22:19;;;;;;;0.55;0.55;;;;;;;6.35;76.79;93155.34;4984553;28;20088;-44
2021/04/19 05:24:45;;;;;;;0.63;0.57;;;;;;;6.27;77.54;93163.47;4966938;28;20045;-44
2021/04/19 05:27:11;;;;;;;1.08;1.00;;;;;;;6.34;77.84;93162.09;4966826;28;20500;-45
2021/04/19 05:29:39;;;;;;;0.47;0.47;;;;;;;6.51;77.56;93157.78;4966978;28;20026;-43
2021/04/19 05:32:07;;;;;;;0.32;0.32;;;;;;;6.57;77.25;93163.13;4966316;28;20500;-43
2021/04/19 05:34:32;;;;;;;0.60;0.60;;;;;;;6.65;77.14;93153.72;4966743;28;20026;-43
2021/04/19 05:36:59;;;;;;;0.50;0.50;;;;;;;6.74;75.63;93156.03;4973128;28;20073;-45
2021/04/19 05:39:24;;;;;;;0.35;0.35;;;;;;;6.65;75.87;93147.50;4985604;28;20030;-43
2021/04/19 05:41:51;;;;;;;0.82;0.82;;;;;;;6.60;76.69;93151.09;4970585;28;20034;-43
2021/04/19 05:44:16;;;;;;;0.90;0.90;;;;;;;6.62;76.70;93151.31;4968962;28;20045;-45
2021/04/19 05:46:43;;;;;;;1.33;1.23;;;;;;;6.62;76.29;93140.34;4983687;28;20034;-44
2021/04/19 05:49:08;;;;;;;1.17;1.08;;;;;;;6.66;76.29;93143.50;4970427;28;20071;-43
2021/04/19 05:51:39;;;;;;;1.27;0.63;;;;;;;6.71;76.27;93146.09;4987677;28;20038;-44
2021/04/19 05:54:05;;;;;;;0.50;0.50;;;;;;;6.67;75.73;93137.47;4970270;28;20034;-45
2021/04/19 05:56:47;;;;;;;0.70;0.70;;;;;;;6.80;75.11;93142.94;4969690;28;20026;-44
2021/04/19 05:59:17;;;;;;;1.83;1.67;;;;;;;6.80;75.12;93140.19;4970025;28;20043;-44
2021/04/19 06:01:45;;;;;;;0.63;0.63;;;;;;;6.82;75.53;93143.13;4987926;28;20026;-43
2021/04/19 06:04:27;;;;;;;1.58;1.48;;;;;;;6.91;75.82;93136.47;4966400;28;20030;-44
2021/04/19 06:07:12;;;;;;;0.73;0.70;;;;;;;6.97;75.01;93134.34;4967926;28;20515;-43
2021/04/19 06:09:46;;;;;;;1.23;1.13;;;;;;;6.88;75.27;93137.53;4932377;28;20038;-43
2021/04/19 06:12:12;;;;;;;2.40;2.22;;;;;;;6.80;75.67;93134.69;4968895;28;20544;-45
2021/04/19 06:14:43;;;;;;;1.20;1.20;;;;;;;6.96;75.81;93134.88;4963313;28;20096;-45
2021/04/19 06:17:09;;;;;;;1.48;1.40;;;;;;;7.04;75.99;93133.66;4972737;28;20038;-43
2021/04/19 06:19:37;;;;;;;1.92;1.83;;;;;;;7.09;75.19;93134.81;4970440;28;20046;-44
2021/04/19 06:22:03;;;;;;;1.30;1.23;;;;;;;7.11;74.43;93137.75;4971272;28;20065;-43
2021/04/19 06:24:28;;;;;;;1.98;1.88;;;;;;;7.16;74.42;93140.41;4954179;28;20038;-46
2021/04/19 06:26:54;;;;;;;1.02;1.02;;;;;;;6.76;75.48;93114.34;4954357;28;20045;-44
2021/04/19 06:29:27;;;;;;;2.28;1.95;;;;;;;6.75;76.36;93143.81;4971784;28;20026;-44
2021/04/19 06:31:53;;;;;;;1.30;0.77;;;;;;;6.70;76.41;93141.16;4974617;28;20164;-45
2021/04/19 06:34:19;;;;;;;0.73;0.73;;;;;;;6.76;76.40;93141.78;4997291;28;20479;-43
2021/04/19 06:36:46;;;;;;;0.38;0.38;;;;;;;6.37;76.96;93136.34;4990625;28;20088;-45
2021/04/19 06:39:17;;;;;;;0.82;0.77;;;;;;;6.36;77.50;93140.38;4990672;28;20030;-44
2021/04/19 06:41:44;;;;;;;0.73;0.73;;;;;;;6.29;77.42;93141.00;4990572;28;20583;-44
2021/04/19 06:44:10;;;;;;;0.90;0.90;;;;;;;6.28;77.52;93134.06;4989973;28;20053;-44
2021/04/19 06:46:37;;;;;;;3.20;2.97;;;;;;;6.24;77.10;93128.16;4990984;28;20113;-44
2021/04/19 06:49:04;;;;;;;1.30;1.20;;;;;;;6.30;76.35;93126.78;4990583;28;20030;-44
2021/04/19 06:51:31;;;;;;;0.28;0.28;;;;;;;6.15;76.25;93129.31;4990621;28;20538;-43
2021/04/19 06:53:58;;;;;;;1.10;1.10;;;;;;;6.03;77.05;93134.28;4990586;28;20033;-44
2021/04/19 06:56:27;;;;;;;0.30;0.30;;;;;;;5.98;77.03;93126.88;4990753;28;20182;-46
2021/04/19 06:58:53;;;;;;;;;;;;;;;6.02;77.82;93130.06;4991196;28;20060;-45
2021/04/19 07:01:20;;;;;;;1.85;1.75;;;;;;;6.05;78.02;93129.00;4990367;28;19925;-44
2021/04/19 07:03:50;;;;;;;0.90;0.90;;;;;;;5.98;77.30;93121.41;4990386;28;20069;-43
2021/04/19 07:06:16;;;;;;;1.77;1.65;;;;;;;6.04;77.31;93133.00;4990682;28;20034;-46
2021/04/19 07:08:44;;;;;;;3.80;2.90;;;;;;;6.03;77.79;93137.03;4988264;28;20040;-43
2021/04/19 07:11:10;;;;;;;1.73;1.63;;;;;;;6.01;77.89;93136.81;4976381;28;20077;-44
2021/04/19 07:13:37;;;;;;;1.13;1.05;;;;;;;6.03;77.45;93137.03;4954247;28;20023;-43
2021/04/19 07:16:03;;;;;;;1.88;1.75;;;;;;;5.95;77.81;93125.22;4990054;28;20494;-44
2021/04/19 07:18:28;;;;;;;1.92;1.77;;;;;;;5.96;78.19;93134.16;4990177;28;20301;-44
2021/04/19 07:20:54;;;;;;;0.60;0.60;;;;;;;5.88;78.88;93134.06;4972844;28;20134;-42
2021/04/19 07:23:20;;;;;;;0.32;0.32;;;;;;;5.96;78.65;93142.38;4971262;28;20061;-43
2021/04/19 07:25:46;;;;;;;0.50;0.50;;;;;;;5.93;78.24;93138.69;4989025;28;20038;-45
2021/04/19 07:28:14;;;;;;;0.30;0.30;;;;;;;5.84;78.90;93136.38;4990108;28;20045;-43
2021/04/19 07:30:43;;;;;;;0.40;0.40;;;;;;;5.80;79.58;93127.72;4990251;28;20102;-44
2021/04/19 07:33:26;;;;;;;0.28;0.28;;;;;;;6.04;78.51;93133.00;4989464;28;20054;-44
2021/04/19 07:35:51;;;;;;;1.35;1.27;;;;;;;6.12;78.95;93127.63;4989993;28;20466;-44
2021/04/19 07:38:37;;;;;;;0.25;0.25;;;;;;;6.20;78.56;93122.25;4989993;28;20061;-43
2021/04/19 07:41:03;;;;;;;0.30;0.30;;;;;;;6.20;78.41;93108.53;4989578;28;20073;-44
2021/04/19 07:43:36;;;;;;;0.40;0.40;;;;;;;6.30;77.96;93117.81;4989762;28;20034;-42
2021/04/19 07:46:08;;;;;;;0.20;0.20;;;;;;;6.32;77.75;93113.28;4989798;28;20034;-43
2021/04/19 07:48:42;;;;;;;0.55;0.55;;;;;;;6.32;77.90;93123.50;4989798;28;20157;-42
2021/04/19 07:51:34;;;;;;;0.95;0.95;;;;;;;6.29;78.24;93119.06;4989328;28;20499;-42
2021/04/19 07:54:21;;;;;;;0.35;0.35;;;;;;;6.43;78.15;93117.81;4989909;28;20094;-42
2021/04/19 07:57:08;;;;;;;0.20;0.20;;;;;;;6.46;77.55;93114.72;4989902;28;20041;-44
2021/04/19 07:59:36;;;;;;;0.30;0.30;;;;;;;6.37;76.97;93126.13;4989512;28;20181;-43
2021/04/19 08:02:03;;;;;;;0.20;0.20;;;;;;;6.36;76.82;93119.19;4989277;28;20034;-42
2021/04/19 08:04:29;;;;;;;0.60;0.60;;;;;;;6.19;77.24;93110.56;4989527;28;20038;-42
2021/04/19 08:06:55;;;;;;;0.20;0.20;;;;;;;6.18;76.73;93117.28;4989037;28;20042;-42
2021/04/19 08:09:25;;;;;;;0.20;0.20;;;;;;;6.20;75.99;93122.25;4987096;28;20049;-43
2021/04/19 08:11:57;;;;;;;0.20;0.20;;;;;;;6.04;76.75;93122.03;4989215;28;20034;-44
2021/04/19 08:14:22;;;;;;;0.20;0.20;;;;;;;6.04;76.48;93126.81;4989109;28;20022;-43
2021/04/19 08:17:05;;;;;;;0.20;0.20;;;;;;;5.96;76.62;93120.47;4989432;28;20030;-44
2021/04/19 08:19:39;;;;;;;0.20;0.20;;;;;;;5.70;76.07;93104.72;4989307;28;20033;-42
2021/04/19 08:22:21;;;;;;;0.20;0.20;;;;;;;5.85;76.92;93109.69;4989150;28;20429;-43
2021/04/19 08:24:47;;;;;;;0.38;0.38;;;;;;;5.63;77.44;93105.34;4988597;28;20495;-41
2021/04/19 08:27:23;;;;;;;0.30;0.30;;;;;;;5.80;77.08;93110.53;4988924;28;20062;-43
2021/04/19 08:29:49;;;;;;;0.20;0.20;;;;;;;5.82;76.67;93099.78;4989133;28;20030;-44
2021/04/19 08:32:18;;;;;;;0.20;0.20;;;;;;;5.87;77.25;93105.19;4991888;28;20137;-44
2021/04/19 08:34:44;;;;;;;0.30;0.30;;;;;;;5.93;77.48;93094.13;5008416;28;20026;-42
2021/04/19 08:37:11;;;;;;;0.43;0.43;;;;;;;6.03;77.57;93093.16;4999456;28;20034;-42
2021/04/19 08:39:38;;;;;;;0.73;0.73;;;;;;;5.98;77.90;93088.53;4988980;28;20073;-42
2021/04/19 08:42:04;;;;;;;0.57;0.57;;;;;;;5.99;78.24;93081.06;4988741;28;20057;-40
2021/04/19 08:44:34;;;;;;;1.65;0.60;;;;;;;6.11;78.54;93074.06;4988569;28;20030;-42
2021/04/19 08:47:01;;;;;;;0.30;0.30;;;;;;;6.29;78.22;93069.72;4988499;28;20037;-40
2021/04/19 08:49:27;;;;;;;0.30;0.30;;;;;;;6.42;78.13;93064.22;4988472;28;20034;-39
2021/04/19 08:51:53;;;;;;;0.30;0.30;;;;;;;6.58;77.66;93057.66;4970822;28;20116;-40
2021/04/19 08:54:20;;;;;;;0.25;0.25;;;;;;;6.68;77.46;93059.41;4988359;28;20040;-41
2021/04/19 08:56:45;;;;;;;0.70;0.70;;;;;;;6.68;76.67;93058.66;4988543;28;20030;-39
2021/04/19 08:59:12;;;;;;;0.50;0.50;;;;;;;6.69;75.95;93060.88;4970817;28;20018;-41
2021/04/19 09:01:37;;;;;;;0.43;0.43;;;;;;;6.70;75.82;93065.09;4987692;28;20042;-40
2021/04/19 09:04:06;;;;;;;0.73;0.73;;;;;;;6.67;75.70;93060.66;4970600;28;20027;-43
2021/04/19 09:06:41;;;;;;;;;;;;;;;6.62;75.10;93053.31;4988633;28;20038;-43
2021/04/19 09:09:07;;;;;;;2.17;1.55;;;;;;;6.66;75.35;93064.69;4986317;28;19953;-44
2021/04/19 09:11:33;;;;;;;0.63;0.63;;;;;;;6.64;74.84;93067.22;4981336;28;20035;-44
2021/04/19 09:14:15;;;;;;;1.63;1.35;;;;;;;6.62;74.09;93069.78;4972231;28;20419;-44
2021/04/19 09:16:44;;;;;;;0.60;0.60;;;;;;;6.59;73.88;93064.59;4988131;28;20495;-43
2021/04/19 09:19:16;;;;;;;1.27;1.17;;;;;;;6.64;73.48;93064.47;4987978;28;20162;-43
2021/04/19 09:21:44;;;;;;;0.25;0.25;;;;;;;6.71;73.53;93080.28;4988155;28;20125;-42
2021/04/19 09:24:15;;;;;;;0.43;0.43;;;;;;;6.52;73.96;93073.50;4988081;28;20035;-44
2021/04/19 09:26:47;;;;;;;0.28;0.28;;;;;;;6.50;73.95;93071.25;4988300;28;20033;-43
2021/04/19 09:29:24;;;;;;;0.30;0.30;;;;;;;6.57;73.84;93078.09;4987863;28;20034;-44
2021/04/19 09:32:04;;;;;;;0.25;0.25;;;;;;;6.47;74.04;93069.59;4987984;28;20514;-42
2021/04/19 09:34:43;;;;;;;0.20;0.20;;;;;;;6.32;74.64;93057.72;4968695;28;20090;-43
2021/04/19 09:37:10;;;;;;;0.30;0.30;;;;;;;6.31;74.59;93073.41;4968350;28;20031;-44
2021/04/19 09:39:46;;;;;;;0.30;0.30;;;;;;;6.45;73.86;93068.66;4968282;28;20042;-42
2021/04/19 09:42:13;;;;;;;0.38;0.38;;;;;;;6.51;74.37;93058.28;4966875;28;20030;-42
2021/04/19 09:44:54;;;;;;;0.20;0.20;;;;;;;6.46;73.89;93065.38;4966707;28;20031;-42
2021/04/19 09:47:48;;;;;;;0.35;0.35;;;;;;;6.36;73.85;93069.09;4966249;28;20026;-43
2021/04/19 09:50:24;;;;;;;1.52;1.42;;;;;;;6.37;74.30;93070.56;4966214;28;20056;-42
2021/04/19 09:52:52;;;;;;;0.22;0.22;;;;;;;6.46;73.68;93061.88;4966655;28;20077;-44
2021/04/19 09:55:20;;;;;;;2.42;2.05;;;;;;;6.53;73.51;93058.50;4966793;28;20031;-44
2021/04/19 09:57:45;;;;;;;4.53;1.75;;;;;;;6.43;73.47;93054.75;4968363;28;20037;-44
2021/04/19 10:00:12;;;;;;;0.75;0.75;;;;;;;6.61;73.20;93045.59;4966801;28;20503;-43
2021/04/19 10:02:41;;;;;;;2.20;1.48;;;;;;;6.63;72.75;93043.78;4968286;28;20109;-43
2021/04/19 10:05:07;;;;;;;0.50;0.50;;;;;;;6.67;72.65;93048.97;4967920;28;20027;-42
2021/04/19 10:07:37;;;;;;;0.25;0.25;;;;;;;6.74;72.56;93048.28;4950947;28;20527;-42
2021/04/19 10:10:03;;;;;;;0.25;0.25;;;;;;;6.74;73.12;93048.28;4966045;28;20489;-43
2021/04/19 10:12:32;;;;;;;1.67;1.60;;;;;;;6.70;72.88;93050.63;4967809;28;20577;-44
2021/04/19 10:14:58;;;;;;;0.10;0.10;;;;;;;6.76;72.58;93054.72;4950292;28;20026;-43
2021/04/19 10:17:29;;;;;;;0.40;0.40;;;;;;;6.82;73.10;93049.84;4968071;28;20093;-43
2021/04/19 10:19:54;;;;;;;0.47;0.47;;;;;;;6.79;71.98;93053.66;4960441;28;20034;-41
2021/04/19 10:22:20;;;;;;;0.20;0.20;;;;;;;6.79;71.44;93050.19;4949165;29;20039;-42
2021/04/19 10:24:49;;;;;;;0.30;0.30;;;;;;;6.85;71.23;93048.03;4948935;29;20038;-43
2021/04/19 10:27:23;;;;;;;1.10;0.68;;;;;;;7.00;71.60;93048.19;4948975;29;20030;-43
2021/04/19 10:29:49;;;;;;;0.20;0.20;;;;;;;6.87;71.18;93050.97;4949402;29;20027;-43
2021/04/19 10:32:26;;;;;;;0.38;0.38;;;;;;;6.91;71.39;93042.44;4952035;28;20295;-44
2021/04/19 10:34:52;;;;;;;1.10;0.73;;;;;;;6.95;71.50;93054.56;4985816;28;20476;-45
2021/04/19 10:37:17;;;;;;;0.43;0.43;;;;;;;6.96;71.82;93053.28;4989674;28;20037;-44
2021/04/19 10:39:45;;;;;;;3.30;0.50;;;;;;;7.07;71.36;93046.78;4989795;28;20030;-43
2021/04/19 10:42:10;;;;;;;2.75;2.15;;;;;;;7.03;70.25;93044.38;4972591;28;20058;-44
2021/04/19 10:44:41;;;;;;;0.73;0.73;;;;;;;7.02;71.22;93039.44;4972372;28;20110;-44
2021/04/19 10:47:09;;;;;;;1.05;1.05;;;;;;;6.88;70.50;93042.25;4989134;28;20109;-43
2021/04/19 10:49:36;;;;;;;1.70;1.08;;;;;;;6.93;70.72;93040.59;4989626;28;20030;-45
2021/04/19 10:52:04;;;;;;;0.57;0.57;;;;;;;6.81;71.23;93034.66;4989698;28;20100;-43
2021/04/19 10:54:38;;;;;;;1.88;1.77;;;;;;;6.91;71.75;93036.94;4989441;28;20029;-42
2021/04/19 10:57:06;;;;;;;1.70;1.63;;;;;;;6.98;71.75;93039.00;4989515;28;20111;-44
2021/04/19 10:59:32;;;;;;;4.53;1.77;;;;;;;6.95;71.17;93026.38;4992206;28;20034;-42
2021/04/19 11:02:01;;;;;;;4.15;1.67;;;;;;;7.18;71.50;93030.78;4991624;28;20030;-42
2021/04/19 11:04:27;;;;;;;2.08;1.33;;;;;;;7.29;71.56;93025.00;4992756;28;20019;-44
2021/04/19 11:06:52;;;;;;;0.52;0.52;;;;;;;7.46;70.97;93017.09;4975566;28;20026;-45
2021/04/19 11:09:26;;;;;;;1.02;0.88;;;;;;;7.76;70.82;93015.78;4992881;28;20561;-43
2021/04/19 11:11:52;;;;;;;2.45;1.98;;;;;;;8.00;70.53;92998.88;4992945;28;20105;-44
2021/04/19 11:14:19;;;;;;;0.88;0.88;;;;;;;8.23;69.70;92989.44;4991304;28;20503;-43
2021/04/19 11:17:01;;;;;;;0.20;0.20;;;;;;;7.97;67.48;92983.50;4992582;28;20040;-43
2021/04/19 11:19:36;;;;;;;0.20;0.20;;;;;;;8.10;68.85;92984.06;4973439;28;20776;-43
2021/04/19 11:22:24;;;;;;;0.20;0.20;;;;;;;8.08;67.40;92980.41;4973035;28;20027;-42
2021/04/19 11:24:50;;;;;;;0.20;0.20;;;;;;;8.53;66.90;92977.84;4973287;28;20636;-42
2021/04/19 11:27:25;;;;;;;0.20;0.20;;;;;;;8.83;68.40;92983.41;4973079;28;20106;-43
2021/04/19 11:29:51;;;;;;;0.20;0.20;;;;;;;8.87;68.28;92974.78;4972792;28;20030;-44
2021/04/19 11:32:27;;;;;;;0.20;0.20;;;;;;;9.07;67.06;92993.88;4972737;28;20101;-43
2021/04/19 11:34:54;;;;;;;0.17;0.17;;;;;;;8.99;66.94;92986.88;4972664;28;20025;-44
2021/04/19 11:37:58;;;;;;;0.52;0.52;;;;;;;8.90;66.60;92990.91;4980526;28;20534;-43
2021/04/19 11:40:35;;;;;;;1.20;0.50;;;;;;;8.83;66.39;92972.41;4951625;28;20140;-43
2021/04/19 11:43:29;;;;;;;1.77;1.27;;;;;;;8.87;65.25;92977.53;4972384;28;20113;-46
2021/04/19 11:46:11;;;;;;;0.20;0.20;;;;;;;8.85;66.19;92974.59;4986376;28;20404;-43
2021/04/19 11:48:44;;;;;;;0.50;0.50;;;;;;;8.78;66.86;92978.81;4992215;28;20462;-42
2021/04/19 11:51:11;;;;;;;0.57;0.57;;;;;;;8.82;65.72;92970.91;4992104;28;20038;-43